Cedar, Minnesota
Current Conditions -  °F | °C
As of 7:45 AM on Tuesday 27 Jan 2015 (Local Time) from KANE Reporting Station
Overcast Overcast  
Wind Chill: 29°   Ceiling: 2000
Heat Index: 34°   Visibility: 10mi
Dew Point: 28°   Wind: 6mph
Humidity: 81%   Direction: 70°ENE
Pressure: 30.12"   Gusts: NA
Location:  45.32°N, 93.29°W
Report Text: KANE 271345Z 07005KT 10SM OVC020 01/M02 A3012
Loading
Personal Weather Stations






























Interactive Weather Map New forecast layout! Learn more

10-Day Weather Forecast

Advertisements
Track Severe Weather on mobile